sensor_id;sensor_type;location;lat;lon;timestamp;pressure;altitude;pressure_sealevel;temperature;humidity
21742;BME280;11033;47.490;11.116;2022-11-14T00:00:22;93135.09;;;3.20;81.12
21742;BME280;11033;47.490;11.116;2022-11-14T00:02:47;93134.59;;;3.16;81.69
21742;BME280;11033;47.490;11.116;2022-11-14T00:05:13;93137.56;;;3.22;81.38
21742;BME280;11033;47.490;11.116;2022-11-14T00:07:38;93131.25;;;3.24;81.12
21742;BME280;11033;47.490;11.116;2022-11-14T00:10:04;93126.00;;;3.34;80.37
21742;BME280;11033;47.490;11.116;2022-11-14T00:12:29;93128.03;;;3.40;81.65
21742;BME280;11033;47.490;11.116;2022-11-14T00:14:55;93126.16;;;3.50;80.91
21742;BME280;11033;47.490;11.116;2022-11-14T00:17:20;93123.94;;;3.55;79.04
21742;BME280;11033;47.490;11.116;2022-11-14T00:19:45;93119.16;;;3.68;79.19
21742;BME280;11033;47.490;11.116;2022-11-14T00:22:10;93118.56;;;3.74;78.98
21742;BME280;11033;47.490;11.116;2022-11-14T00:24:36;93112.56;;;3.92;77.80
21742;BME280;11033;47.490;11.116;2022-11-14T00:27:01;93113.94;;;4.04;77.35
21742;BME280;11033;47.490;11.116;2022-11-14T00:29:26;93120.78;;;4.05;78.44
21742;BME280;11033;47.490;11.116;2022-11-14T00:31:52;93119.38;;;4.10;77.20
21742;BME280;11033;47.490;11.116;2022-11-14T00:34:17;93119.97;;;4.04;76.73
21742;BME280;11033;47.490;11.116;2022-11-14T00:36:42;93125.69;;;4.08;77.10
21742;BME280;11033;47.490;11.116;2022-11-14T00:39:11;93114.97;;;4.11;76.34
21742;BME280;11033;47.490;11.116;2022-11-14T00:41:37;93114.66;;;4.14;76.15
21742;BME280;11033;47.490;11.116;2022-11-14T00:44:03;93112.72;;;4.16;76.01
21742;BME280;11033;47.490;11.116;2022-11-14T00:46:28;93120.59;;;4.24;76.84
21742;BME280;11033;47.490;11.116;2022-11-14T00:48:53;93120.28;;;4.27;75.82
21742;BME280;11033;47.490;11.116;2022-11-14T00:51:18;93116.34;;;4.49;75.47
21742;BME280;11033;47.490;11.116;2022-11-14T00:53:44;93118.81;;;4.51;75.67
21742;BME280;11033;47.490;11.116;2022-11-14T00:56:09;93118.16;;;4.49;74.59
21742;BME280;11033;47.490;11.116;2022-11-14T00:58:34;93120.81;;;4.57;75.31
21742;BME280;11033;47.490;11.116;2022-11-14T01:01:00;93122.16;;;4.61;75.30
21742;BME280;11033;47.490;11.116;2022-11-14T01:03:25;93117.44;;;4.64;75.60
21742;BME280;11033;47.490;11.116;2022-11-14T01:05:50;93118.97;;;4.75;75.20
21742;BME280;11033;47.490;11.116;2022-11-14T01:08:17;93116.06;;;4.86;74.78
21742;BME280;11033;47.490;11.116;2022-11-14T01:10:46;93119.03;;;4.91;74.40
21742;BME280;11033;47.490;11.116;2022-11-14T01:13:12;93110.06;;;4.94;73.26
21742;BME280;11033;47.490;11.116;2022-11-14T01:15:42;93106.00;;;4.99;75.05
21742;BME280;11033;47.490;11.116;2022-11-14T01:18:14;93112.56;;;5.03;75.93
21742;BME280;11033;47.490;11.116;2022-11-14T01:20:42;93121.03;;;5.05;74.14
21742;BME280;11033;47.490;11.116;2022-11-14T01:23:08;93105.88;;;5.09;74.03
21742;BME280;11033;47.490;11.116;2022-11-14T01:25:35;93101.81;;;5.15;73.59
21742;BME280;11033;47.490;11.116;2022-11-14T01:28:04;93094.22;;;5.21;73.31
21742;BME280;11033;47.490;11.116;2022-11-14T01:30:30;93099.09;;;5.24;73.39
21742;BME280;11033;47.490;11.116;2022-11-14T01:32:55;93097.16;;;5.26;72.88
21742;BME280;11033;47.490;11.116;2022-11-14T01:35:21;93098.47;;;5.30;73.32
21742;BME280;11033;47.490;11.116;2022-11-14T01:37:46;93095.06;;;5.38;72.67
21742;BME280;11033;47.490;11.116;2022-11-14T01:40:11;93095.56;;;5.41;72.28
21742;BME280;11033;47.490;11.116;2022-11-14T01:42:36;93095.72;;;5.40;71.97
21742;BME280;11033;47.490;11.116;2022-11-14T01:48:48;93083.97;;;5.44;75.05
21742;BME280;11033;47.490;11.116;2022-11-14T01:53:43;93074.00;;;5.48;73.83
21742;BME280;11033;47.490;11.116;2022-11-14T01:56:13;93071.09;;;5.51;74.05
21742;BME280;11033;47.490;11.116;2022-11-14T01:58:44;93072.56;;;5.53;74.24
21742;BME280;11033;47.490;11.116;2022-11-14T02:01:11;93073.53;;;5.60;72.80
21742;BME280;11033;47.490;11.116;2022-11-14T02:03:39;93072.88;;;5.50;75.44
21742;BME280;11033;47.490;11.116;2022-11-14T02:06:06;93069.78;;;5.55;74.46
21742;BME280;11033;47.490;11.116;2022-11-14T02:08:34;93074.69;;;5.58;74.82
21742;BME280;11033;47.490;11.116;2022-11-14T02:11:00;93073.38;;;5.62;73.52
21742;BME280;11033;47.490;11.116;2022-11-14T02:13:26;93064.41;;;5.64;73.13
21742;BME280;11033;47.490;11.116;2022-11-14T02:15:51;93065.22;;;5.65;72.62
21742;BME280;11033;47.490;11.116;2022-11-14T02:18:16;93063.25;;;5.67;74.25
21742;BME280;11033;47.490;11.116;2022-11-14T02:20:41;93055.09;;;5.62;73.94
21742;BME280;11033;47.490;11.116;2022-11-14T02:23:11;93051.00;;;5.67;74.38
21742;BME280;11033;47.490;11.116;2022-11-14T02:25:38;93053.63;;;5.67;75.32
21742;BME280;11033;47.490;11.116;2022-11-14T02:28:06;93047.25;;;5.70;74.21
21742;BME280;11033;47.490;11.116;2022-11-14T02:30:33;93049.38;;;5.74;74.77
21742;BME280;11033;47.490;11.116;2022-11-14T02:32:59;93061.63;;;5.66;75.32
21742;BME280;11033;47.490;11.116;2022-11-14T02:35:24;93056.56;;;5.72;74.19
21742;BME280;11033;47.490;11.116;2022-11-14T02:37:49;93068.66;;;5.73;73.73
21742;BME280;11033;47.490;11.116;2022-11-14T02:40:15;93066.34;;;5.79;73.18
21742;BME280;11033;47.490;11.116;2022-11-14T02:42:40;93053.94;;;5.81;72.65
21742;BME280;11033;47.490;11.116;2022-11-14T02:45:06;93054.97;;;5.88;72.95
21742;BME280;11033;47.490;11.116;2022-11-14T02:47:31;93052.00;;;5.83;72.51
21742;BME280;11033;47.490;11.116;2022-11-14T02:49:57;93055.47;;;5.99;73.06
21742;BME280;11033;47.490;11.116;2022-11-14T02:52:22;93064.44;;;5.89;72.35
21742;BME280;11033;47.490;11.116;2022-11-14T02:54:47;93058.91;;;5.92;72.41
21742;BME280;11033;47.490;11.116;2022-11-14T02:57:13;93052.34;;;5.88;72.21
21742;BME280;11033;47.490;11.116;2022-11-14T02:59:38;93059.88;;;5.91;72.98
21742;BME280;11033;47.490;11.116;2022-11-14T03:02:03;93056.94;;;5.94;72.95
21742;BME280;11033;47.490;11.116;2022-11-14T03:04:29;93051.06;;;5.92;72.22
21742;BME280;11033;47.490;11.116;2022-11-14T03:06:54;93063.00;;;5.94;73.84
21742;BME280;11033;47.490;11.116;2022-11-14T03:09:19;93070.00;;;5.94;72.82
21742;BME280;11033;47.490;11.116;2022-11-14T03:11:44;93061.34;;;6.01;72.99
21742;BME280;11033;47.490;11.116;2022-11-14T03:14:10;93066.91;;;5.98;71.68
21742;BME280;11033;47.490;11.116;2022-11-14T03:16:35;93065.94;;;5.91;72.20
21742;BME280;11033;47.490;11.116;2022-11-14T03:19:01;93064.59;;;5.87;73.67
21742;BME280;11033;47.490;11.116;2022-11-14T03:21:26;93058.56;;;5.87;72.78
21742;BME280;11033;47.490;11.116;2022-11-14T03:23:51;93053.31;;;5.87;73.61
21742;BME280;11033;47.490;11.116;2022-11-14T03:26:17;93058.03;;;5.83;73.68
21742;BME280;11033;47.490;11.116;2022-11-14T03:28:43;93053.94;;;5.81;74.20
21742;BME280;11033;47.490;11.116;2022-11-14T03:31:11;93050.34;;;5.82;74.43
21742;BME280;11033;47.490;11.116;2022-11-14T03:33:36;93055.47;;;5.91;73.66
21742;BME280;11033;47.490;11.116;2022-11-14T03:36:02;93050.34;;;5.82;73.32
21742;BME280;11033;47.490;11.116;2022-11-14T03:38:28;93045.94;;;5.82;73.62
21742;BME280;11033;47.490;11.116;2022-11-14T03:40:53;93039.56;;;5.85;73.05
21742;BME280;11033;47.490;11.116;2022-11-14T03:43:20;93043.16;;;5.84;73.28
21742;BME280;11033;47.490;11.116;2022-11-14T03:45:46;93040.56;;;5.76;73.63
21742;BME280;11033;47.490;11.116;2022-11-14T03:48:12;93044.16;;;5.74;74.86
21742;BME280;11033;47.490;11.116;2022-11-14T03:50:38;93050.34;;;5.73;74.91
21742;BME280;11033;47.490;11.116;2022-11-14T03:53:04;93043.00;;;5.77;74.16
21742;BME280;11033;47.490;11.116;2022-11-14T03:55:29;93046.09;;;5.72;74.59
21742;BME280;11033;47.490;11.116;2022-11-14T03:57:54;93050.69;;;5.62;77.19
21742;BME280;11033;47.490;11.116;2022-11-14T04:00:20;93041.69;;;5.73;74.82
21742;BME280;11033;47.490;11.116;2022-11-14T04:02:45;93041.22;;;5.69;74.93
21742;BME280;11033;47.490;11.116;2022-11-14T04:05:11;93040.88;;;5.72;74.34
21742;BME280;11033;47.490;11.116;2022-11-14T04:07:37;93036.63;;;5.63;76.35
21742;BME280;11033;47.490;11.116;2022-11-14T04:10:02;93037.94;;;5.67;75.63
21742;BME280;11033;47.490;11.116;2022-11-14T04:12:28;93040.88;;;5.72;73.31
21742;BME280;11033;47.490;11.116;2022-11-14T04:14:53;93044.81;;;5.68;76.11
21742;BME280;11033;47.490;11.116;2022-11-14T04:17:18;93041.69;;;5.73;75.32
21742;BME280;11033;47.490;11.116;2022-11-14T04:19:44;93034.19;;;5.70;74.83
21742;BME280;11033;47.490;11.116;2022-11-14T04:22:09;93029.78;;;5.70;74.10
21742;BME280;11033;47.490;11.116;2022-11-14T04:24:34;93022.75;;;5.71;75.66
21742;BME280;11033;47.490;11.116;2022-11-14T04:26:59;93026.03;;;5.65;77.06
21742;BME280;11033;47.490;11.116;2022-11-14T04:29:25;93029.44;;;5.65;74.49
21742;BME280;11033;47.490;11.116;2022-11-14T04:31:50;93030.59;;;5.63;76.18
21742;BME280;11033;47.490;11.116;2022-11-14T04:34:15;93036.16;;;5.76;75.21
21742;BME280;11033;47.490;11.116;2022-11-14T04:36:41;93026.50;;;5.77;74.14
21742;BME280;11033;47.490;11.116;2022-11-14T04:39:06;93028.63;;;5.73;74.62
21742;BME280;11033;47.490;11.116;2022-11-14T04:41:31;93027.16;;;5.79;73.76
21742;BME280;11033;47.490;11.116;2022-11-14T04:43:57;93027.47;;;5.84;75.02
21742;BME280;11033;47.490;11.116;2022-11-14T04:46:22;93031.06;;;5.83;73.89
21742;BME280;11033;47.490;11.116;2022-11-14T04:48:47;93031.41;;;5.80;74.82
21742;BME280;11033;47.490;11.116;2022-11-14T04:51:12;93026.19;;;5.80;74.13
21742;BME280;11033;47.490;11.116;2022-11-14T04:53:38;93038.25;;;5.81;75.07
21742;BME280;11033;47.490;11.116;2022-11-14T04:56:04;93032.56;;;5.77;73.56
21742;BME280;11033;47.490;11.116;2022-11-14T04:58:29;93036.97;;;5.77;75.36
21742;BME280;11033;47.490;11.116;2022-11-14T05:00:54;93040.56;;;5.76;75.35
21742;BME280;11033;47.490;11.116;2022-11-14T05:03:22;93037.63;;;5.79;74.06
21742;BME280;11033;47.490;11.116;2022-11-14T05:05:47;93034.69;;;5.73;76.39
21742;BME280;11033;47.490;11.116;2022-11-14T05:08:13;93038.59;;;5.78;75.11
21742;BME280;11033;47.490;11.116;2022-11-14T05:10:42;93028.81;;;5.71;74.80
21742;BME280;11033;47.490;11.116;2022-11-14T05:13:07;93030.91;;;5.76;74.34
21742;BME280;11033;47.490;11.116;2022-11-14T05:15:33;93033.38;;;5.78;74.41
21742;BME280;11033;47.490;11.116;2022-11-14T05:17:58;93038.59;;;5.69;76.73
21742;BME280;11033;47.490;11.116;2022-11-14T05:20:23;93048.72;;;5.64;74.85
21742;BME280;11033;47.490;11.116;2022-11-14T05:22:52;93048.41;;;5.59;75.06
21742;BME280;11033;47.490;11.116;2022-11-14T05:25:18;93040.72;;;5.66;74.21
21742;BME280;11033;47.490;11.116;2022-11-14T05:27:43;93043.34;;;5.58;75.31
21742;BME280;11033;47.490;11.116;2022-11-14T05:30:09;93042.84;;;5.54;76.74
21742;BME280;11033;47.490;11.116;2022-11-14T05:32:35;93050.34;;;5.49;75.96
21742;BME280;11033;47.490;11.116;2022-11-14T05:35:00;93051.66;;;5.53;74.88
21742;BME280;11033;47.490;11.116;2022-11-14T05:37:25;93054.44;;;5.44;76.58
21742;BME280;11033;47.490;11.116;2022-11-14T05:39:50;93059.16;;;5.48;75.04
21742;BME280;11033;47.490;11.116;2022-11-14T05:42:16;93053.94;;;5.48;75.03
21742;BME280;11033;47.490;11.116;2022-11-14T05:44:41;93052.97;;;5.49;74.66
21742;BME280;11033;47.490;11.116;2022-11-14T05:47:06;93056.88;;;5.53;74.51
21742;BME280;11033;47.490;11.116;2022-11-14T05:49:32;93063.09;;;5.52;74.07
21742;BME280;11033;47.490;11.116;2022-11-14T05:51:57;93057.53;;;5.47;74.37
21742;BME280;11033;47.490;11.116;2022-11-14T05:54:22;93059.16;;;5.32;77.01
21742;BME280;11033;47.490;11.116;2022-11-14T05:56:47;93066.34;;;5.38;75.74
21742;BME280;11033;47.490;11.116;2022-11-14T05:59:13;93069.28;;;5.43;75.26
21742;BME280;11033;47.490;11.116;2022-11-14T06:01:38;93069.44;;;5.41;74.50
21742;BME280;11033;47.490;11.116;2022-11-14T06:04:05;93069.09;;;5.36;74.44
21742;BME280;11033;47.490;11.116;2022-11-14T06:06:30;93072.88;;;5.42;74.47
21742;BME280;11033;47.490;11.116;2022-11-14T06:08:56;93082.31;;;5.27;76.14
21742;BME280;11033;47.490;11.116;2022-11-14T06:11:21;93090.13;;;5.27;75.79
21742;BME280;11033;47.490;11.116;2022-11-14T06:13:46;93080.38;;;5.37;75.13
21742;BME280;11033;47.490;11.116;2022-11-14T06:16:16;93082.31;;;5.27;74.81
21742;BME280;11033;47.490;11.116;2022-11-14T06:18:42;93088.00;;;5.22;75.63
21742;BME280;11033;47.490;11.116;2022-11-14T06:21:13;93085.84;;;5.18;75.63
21742;BME280;11033;47.490;11.116;2022-11-14T06:23:38;93080.34;;;5.21;75.88
21742;BME280;11033;47.490;11.116;2022-11-14T06:26:06;93094.81;;;5.15;76.74
21742;BME280;11033;47.490;11.116;2022-11-14T06:28:32;93098.59;;;5.21;75.51
21742;BME280;11033;47.490;11.116;2022-11-14T06:30:59;93089.47;;;5.25;74.77
21742;BME280;11033;47.490;11.116;2022-11-14T06:33:29;93098.28;;;5.24;76.25
21742;BME280;11033;47.490;11.116;2022-11-14T06:36:05;93093.38;;;5.21;75.59
21742;BME280;11033;47.490;11.116;2022-11-14T06:38:32;93092.53;;;5.12;77.68
21742;BME280;11033;47.490;11.116;2022-11-14T06:43:38;93093.75;;;5.34;75.67
21742;BME280;11033;47.490;11.116;2022-11-14T06:46:04;93098.28;;;5.24;75.42
21742;BME280;11033;47.490;11.116;2022-11-14T06:48:30;93086.88;;;5.33;74.85
21742;BME280;11033;47.490;11.116;2022-11-14T06:50:57;93087.22;;;5.30;74.71
21742;BME280;11033;47.490;11.116;2022-11-14T06:53:23;93089.84;;;5.38;75.51
21742;BME280;11033;47.490;11.116;2022-11-14T06:55:57;93083.31;;;5.34;73.47
21742;BME280;11033;47.490;11.116;2022-11-14T06:58:31;93082.47;;;5.33;75.47
21742;BME280;11033;47.490;11.116;2022-11-14T07:01:24;93084.75;;;5.28;75.15
21742;BME280;11033;47.490;11.116;2022-11-14T07:03:55;93082.00;;;5.30;75.80
21742;BME280;11033;47.490;11.116;2022-11-14T07:06:26;93092.34;;;5.14;77.60
21742;BME280;11033;47.490;11.116;2022-11-14T07:08:52;93086.06;;;5.24;75.97
21742;BME280;11033;47.490;11.116;2022-11-14T07:11:21;93080.69;;;5.42;74.59
21742;BME280;11033;47.490;11.116;2022-11-14T07:13:55;93086.88;;;5.33;75.89
21742;BME280;11033;47.490;11.116;2022-11-14T07:16:26;93090.00;;;5.36;75.34
21742;BME280;11033;47.490;11.116;2022-11-14T07:18:54;93090.34;;;5.41;75.42
21742;BME280;11033;47.490;11.116;2022-11-14T07:21:19;93091.81;;;5.44;75.97
21742;BME280;11033;47.490;11.116;2022-11-14T07:23:44;93086.59;;;5.52;74.64
21742;BME280;11033;47.490;11.116;2022-11-14T07:26:10;93077.28;;;5.58;73.84
21742;BME280;11033;47.490;11.116;2022-11-14T07:28:40;93074.84;;;5.56;74.45
21742;BME280;11033;47.490;11.116;2022-11-14T07:31:07;93084.81;;;5.61;73.57
21742;BME280;11033;47.490;11.116;2022-11-14T07:33:33;93076.47;;;5.65;74.15
21742;BME280;11033;47.490;11.116;2022-11-14T07:35:59;93078.13;;;5.66;74.91
21742;BME280;11033;47.490;11.116;2022-11-14T07:38:25;93076.81;;;5.79;74.51
21742;BME280;11033;47.490;11.116;2022-11-14T07:40:58;93075.88;;;5.88;73.50
21742;BME280;11033;47.490;11.116;2022-11-14T07:43:24;93076.84;;;5.87;75.85
21742;BME280;11033;47.490;11.116;2022-11-14T07:45:50;93068.38;;;5.93;73.49
21742;BME280;11033;47.490;11.116;2022-11-14T07:48:16;93067.06;;;5.97;74.84
21742;BME280;11033;47.490;11.116;2022-11-14T07:50:41;93054.66;;;6.07;74.63
21742;BME280;11033;47.490;11.116;2022-11-14T07:53:07;93066.38;;;6.35;75.68
21742;BME280;11033;47.490;11.116;2022-11-14T07:55:35;93064.59;;;6.20;74.46
21742;BME280;11033;47.490;11.116;2022-11-14T07:58:00;93066.72;;;6.24;74.26
21742;BME280;11033;47.490;11.116;2022-11-14T08:00:26;93064.22;;;6.39;72.71
21742;BME280;11033;47.490;11.116;2022-11-14T08:02:51;93058.50;;;6.44;73.18
21742;BME280;11033;47.490;11.116;2022-11-14T08:05:17;93059.09;;;6.70;73.41
21742;BME280;11033;47.490;11.116;2022-11-14T08:07:42;93049.75;;;6.76;73.35
21742;BME280;11033;47.490;11.116;2022-11-14T08:10:08;93052.81;;;6.87;72.15
21742;BME280;11033;47.490;11.116;2022-11-14T08:12:36;93054.84;;;7.08;71.93
21742;BME280;11033;47.490;11.116;2022-11-14T08:15:04;93051.66;;;7.29;72.17
21742;BME280;11033;47.490;11.116;2022-11-14T08:17:30;93051.66;;;7.75;71.27
21742;BME280;11033;47.490;11.116;2022-11-14T08:19:55;93045.56;;;8.05;70.52
21742;BME280;11033;47.490;11.116;2022-11-14T08:22:20;93049.50;;;8.62;70.42
21742;BME280;11033;47.490;11.116;2022-11-14T08:24:46;93029.81;;;9.02;69.49
21742;BME280;11033;47.490;11.116;2022-11-14T08:27:11;93032.88;;;9.20;68.77
21742;BME280;11033;47.490;11.116;2022-11-14T08:29:36;93042.72;;;9.69;68.50
21742;BME280;11033;47.490;11.116;2022-11-14T08:32:02;93041.34;;;10.15;66.50
21742;BME280;11033;47.490;11.116;2022-11-14T08:34:27;93036.28;;;10.63;66.26
21742;BME280;11033;47.490;11.116;2022-11-14T08:36:53;93024.66;;;10.86;65.13
21742;BME280;11033;47.490;11.116;2022-11-14T08:39:20;93032.94;;;11.17;65.08
21742;BME280;11033;47.490;11.116;2022-11-14T08:41:45;93023.34;;;11.51;64.88
21742;BME280;11033;47.490;11.116;2022-11-14T08:44:10;93020.22;;;11.88;64.07
21742;BME280;11033;47.490;11.116;2022-11-14T08:46:36;93010.50;;;12.22;61.30
21742;BME280;11033;47.490;11.116;2022-11-14T08:49:01;93013.47;;;12.98;61.75
21742;BME280;11033;47.490;11.116;2022-11-14T08:51:26;93012.09;;;13.91;59.98
21742;BME280;11033;47.490;11.116;2022-11-14T08:53:51;93021.72;;;14.74;59.01
21742;BME280;11033;47.490;11.116;2022-11-14T08:56:17;93024.00;;;15.13;57.18
21742;BME280;11033;47.490;11.116;2022-11-14T08:58:42;93025.16;;;15.61;55.77
21742;BME280;11033;47.490;11.116;2022-11-14T09:01:11;93016.44;;;16.13;53.97
21742;BME280;11033;47.490;11.116;2022-11-14T09:03:36;93008.16;;;16.22;48.46
21742;BME280;11033;47.490;11.116;2022-11-14T09:06:02;93020.97;;;16.13;49.31
21742;BME280;11033;47.490;11.116;2022-11-14T09:08:28;93026.41;;;16.60;54.25
21742;BME280;11033;47.490;11.116;2022-11-14T09:10:54;93010.56;;;16.65;53.09
21742;BME280;11033;47.490;11.116;2022-11-14T09:13:20;93022.25;;;16.64;49.06
21742;BME280;11033;47.490;11.116;2022-11-14T09:15:46;93020.66;;;16.86;49.81
21742;BME280;11033;47.490;11.116;2022-11-14T09:18:11;93019.75;;;18.19;47.25
21742;BME280;11033;47.490;11.116;2022-11-14T09:20:37;93030.03;;;19.23;48.17
21742;BME280;11033;47.490;11.116;2022-11-14T09:23:03;93023.91;;;19.61;43.81
21742;BME280;11033;47.490;11.116;2022-11-14T09:25:29;93020.81;;;19.91;43.30
21742;BME280;11033;47.490;11.116;2022-11-14T09:27:54;93031.50;;;20.94;43.04
21742;BME280;11033;47.490;11.116;2022-11-14T09:30:20;93027.22;;;20.39;40.21
21742;BME280;11033;47.490;11.116;2022-11-14T09:32:47;93030.94;;;19.67;40.59
21742;BME280;11033;47.490;11.116;2022-11-14T09:35:12;93024.63;;;21.87;39.43
21742;BME280;11033;47.490;11.116;2022-11-14T09:37:38;93021.69;;;22.76;35.57
21742;BME280;11033;47.490;11.116;2022-11-14T09:40:04;93033.81;;;23.60;38.01
21742;BME280;11033;47.490;11.116;2022-11-14T09:45:19;93031.41;;;24.88;36.47
21742;BME280;11033;47.490;11.116;2022-11-14T09:47:47;93030.91;;;24.81;32.01
21742;BME280;11033;47.490;11.116;2022-11-14T09:50:21;93031.13;;;23.60;31.31
21742;BME280;11033;47.490;11.116;2022-11-14T09:52:54;93030.34;;;24.84;34.04
21742;BME280;11033;47.490;11.116;2022-11-14T09:55:24;93029.09;;;25.44;30.20
21742;BME280;11033;47.490;11.116;2022-11-14T09:57:51;93024.53;;;26.45;29.97
21742;BME280;11033;47.490;11.116;2022-11-14T10:00:19;93017.44;;;27.25;27.37
21742;BME280;11033;47.490;11.116;2022-11-14T10:03:01;93030.13;;;26.73;30.35
21742;BME280;11033;47.490;11.116;2022-11-14T10:05:53;93038.00;;;27.58;31.96
21742;BME280;11033;47.490;11.116;2022-11-14T10:08:55;93039.25;;;25.23;27.39
21742;BME280;11033;47.490;11.116;2022-11-14T10:11:46;93034.19;;;27.59;31.31
21742;BME280;11033;47.490;11.116;2022-11-14T10:16:57;93044.16;;;26.51;27.01
21742;BME280;11033;47.490;11.116;2022-11-14T10:19:37;93045.66;;;28.16;27.94
21742;BME280;11033;47.490;11.116;2022-11-14T10:25:06;93039.28;;;26.29;26.10
21742;BME280;11033;47.490;11.116;2022-11-14T10:30:34;93043.63;;;29.71;26.05
21742;BME280;11033;47.490;11.116;2022-11-14T10:33:22;93042.66;;;29.09;25.46
21742;BME280;11033;47.490;11.116;2022-11-14T10:36:04;93033.84;;;29.61;24.65
21742;BME280;11033;47.490;11.116;2022-11-14T10:39:03;93051.72;;;31.21;23.62
21742;BME280;11033;47.490;11.116;2022-11-14T10:41:30;93043.00;;;27.51;21.51
21742;BME280;11033;47.490;11.116;2022-11-14T10:43:56;93041.53;;;28.87;22.21
21742;BME280;11033;47.490;11.116;2022-11-14T10:46:38;93042.38;;;30.70;23.53
21742;BME280;11033;47.490;11.116;2022-11-14T10:49:17;93055.84;;;31.10;22.30
21742;BME280;11033;47.490;11.116;2022-11-14T10:51:45;93047.38;;;28.67;21.43
21742;BME280;11033;47.490;11.116;2022-11-14T10:54:20;93057.84;;;29.46;20.14
21742;BME280;11033;47.490;11.116;2022-11-14T10:56:47;93047.31;;;30.28;21.26
21742;BME280;11033;47.490;11.116;2022-11-14T10:59:13;93061.41;;;28.96;22.30
21742;BME280;11033;47.490;11.116;2022-11-14T11:04:31;93048.19;;;31.81;21.61
21742;BME280;11033;47.490;11.116;2022-11-14T11:09:30;93042.88;;;33.70;20.38
21742;BME280;11033;47.490;11.116;2022-11-14T11:12:18;93035.41;;;34.00;20.57
21742;BME280;11033;47.490;11.116;2022-11-14T11:14:45;93025.16;;;34.09;22.09
21742;BME280;11033;47.490;11.116;2022-11-14T11:19:40;93018.75;;;35.92;17.70
21742;BME280;11033;47.490;11.116;2022-11-14T11:22:27;93027.41;;;34.77;16.70
21742;BME280;11033;47.490;11.116;2022-11-14T11:24:53;93035.56;;;32.70;19.43
21742;BME280;11033;47.490;11.116;2022-11-14T11:27:26;93030.03;;;35.62;19.08
21742;BME280;11033;47.490;11.116;2022-11-14T11:32:33;93030.25;;;36.57;18.42
21742;BME280;11033;47.490;11.116;2022-11-14T11:35:01;93035.09;;;34.14;18.80
21742;BME280;11033;47.490;11.116;2022-11-14T11:37:56;93018.53;;;33.77;19.81
21742;BME280;11033;47.490;11.116;2022-11-14T11:40:26;93023.47;;;34.29;17.46
21742;BME280;11033;47.490;11.116;2022-11-14T11:45:20;93031.91;;;35.46;18.00
21742;BME280;11033;47.490;11.116;2022-11-14T11:48:12;93022.84;;;35.05;18.51
21742;BME280;11033;47.490;11.116;2022-11-14T11:50:39;93032.16;;;36.40;18.15
21742;BME280;11033;47.490;11.116;2022-11-14T11:53:15;93033.66;;;37.17;16.85
21742;BME280;11033;47.490;11.116;2022-11-14T11:55:48;93032.47;;;37.88;18.52
21742;BME280;11033;47.490;11.116;2022-11-14T11:58:49;93036.28;;;36.46;17.64
21742;BME280;11033;47.490;11.116;2022-11-14T12:01:15;93043.00;;;38.05;17.40
21742;BME280;11033;47.490;11.116;2022-11-14T12:03:48;93024.66;;;39.27;17.71
21742;BME280;11033;47.490;11.116;2022-11-14T12:06:16;93029.78;;;40.18;16.16
21742;BME280;11033;47.490;11.116;2022-11-14T12:09:05;93031.19;;;40.02;15.86
21742;BME280;11033;47.490;11.116;2022-11-14T12:11:35;93033.44;;;36.90;14.28
21742;BME280;11033;47.490;11.116;2022-11-14T12:19:40;93029.19;;;36.61;16.56
21742;BME280;11033;47.490;11.116;2022-11-14T12:22:46;93033.88;;;40.32;14.97
21742;BME280;11033;47.490;11.116;2022-11-14T12:31:17;93036.09;;;41.55;14.72
21742;BME280;11033;47.490;11.116;2022-11-14T12:33:50;93032.53;;;41.55;14.51
21742;BME280;11033;47.490;11.116;2022-11-14T12:36:17;93033.44;;;36.90;14.53
21742;BME280;11033;47.490;11.116;2022-11-14T12:38:53;93029.97;;;39.13;16.01
21742;BME280;11033;47.490;11.116;2022-11-14T12:41:27;93034.94;;;41.60;16.24
21742;BME280;11033;47.490;11.116;2022-11-14T12:52:41;93017.69;;;39.93;13.09
21742;BME280;11033;47.490;11.116;2022-11-14T13:03:40;93039.66;;;42.28;16.38
21742;BME280;11033;47.490;11.116;2022-11-14T13:11:45;93039.66;;;41.56;15.82
21742;BME280;11033;47.490;11.116;2022-11-14T13:14:31;93039.63;;;40.94;18.30
21742;BME280;11033;47.490;11.116;2022-11-14T13:20:00;93043.38;;;41.19;18.95
21742;BME280;11033;47.490;11.116;2022-11-14T13:22:45;93036.94;;;38.15;18.10
21742;BME280;11033;47.490;11.116;2022-11-14T13:25:14;93037.31;;;40.21;17.14
21742;BME280;11033;47.490;11.116;2022-11-14T13:27:40;93040.53;;;38.84;18.46
21742;BME280;11033;47.490;11.116;2022-11-14T13:30:06;93023.97;;;37.23;20.60
21742;BME280;11033;47.490;11.116;2022-11-14T13:35:47;93021.38;;;33.68;21.26
21742;BME280;11033;47.490;11.116;2022-11-14T13:46:51;93034.94;;;29.38;26.13
21742;BME280;11033;47.490;11.116;2022-11-14T13:49:38;93050.75;;;26.64;28.87
21742;BME280;11033;47.490;11.116;2022-11-14T13:52:13;93043.91;;;29.25;25.50
21742;BME280;11033;47.490;11.116;2022-11-14T13:54:48;93037.03;;;28.14;27.71
21742;BME280;11033;47.490;11.116;2022-11-14T14:00:14;93039.81;;;25.20;30.37
21742;BME280;11033;47.490;11.116;2022-11-14T14:14:49;93055.63;;;21.68;35.21
21742;BME280;11033;47.490;11.116;2022-11-14T14:23:11;93071.38;;;20.63;36.62
21742;BME280;11033;47.490;11.116;2022-11-14T14:31:20;93072.94;;;18.99;40.69
21742;BME280;11033;47.490;11.116;2022-11-14T14:33:50;93076.72;;;18.42;41.39
21742;BME280;11033;47.490;11.116;2022-11-14T14:36:26;93086.78;;;17.71;44.22
21742;BME280;11033;47.490;11.116;2022-11-14T14:39:31;93088.94;;;17.86;43.63
21742;BME280;11033;47.490;11.116;2022-11-14T14:41:57;93088.34;;;17.95;43.13
21742;BME280;11033;47.490;11.116;2022-11-14T14:44:31;93088.47;;;17.89;43.38
21742;BME280;11033;47.490;11.116;2022-11-14T14:49:47;93092.88;;;17.83;43.57
21742;BME280;11033;47.490;11.116;2022-11-14T14:52:29;93088.38;;;17.25;44.77
21742;BME280;11033;47.490;11.116;2022-11-14T14:54:55;93088.72;;;17.05;45.10